Time;durP1;ratioP1;P1;durP2;ratioP2;P2;SDS_P1;SDS_P2;PMS_P1;PMS_P2;Temp;Humidity;BMP_temperature;BMP_pressure;BME280_temperature;BME280_humidity;BME280_pressure;Samples;Min_cycle;Max_cycle;Signal;HPM_P1;HPM_P2
2022/06/22 00:02:37;;;;;;;0.40;0.30;;;18.60;93.60;;;;;;10219634;29;20090;-59
2022/06/22 00:07:46;;;;;;;1.13;0.30;;;18.60;93.30;;;;;;10216014;29;20114;-59
2022/06/22 00:12:50;;;;;;;0.70;0.35;;;18.50;93.60;;;;;;10213394;29;20055;-59
2022/06/22 00:17:52;;;;;;;1.40;0.40;;;18.40;93.80;;;;;;10198345;28;20060;-59
2022/06/22 00:23:05;;;;;;;0.43;0.30;;;18.40;94.20;;;;;;10219612;29;20047;-59
2022/06/22 00:28:28;;;;;;;1.23;0.50;;;18.30;94.90;;;;;;10216848;29;20047;-59
2022/06/22 00:33:30;;;;;;;0.82;0.40;;;18.30;95.00;;;;;;10219558;29;20502;-58
2022/06/22 00:38:32;;;;;;;0.93;0.40;;;18.20;95.30;;;;;;10222629;29;20059;-59
2022/06/22 00:43:36;;;;;;;0.82;0.40;;;18.10;95.10;;;;;;10217667;29;20094;-59
2022/06/22 00:48:38;;;;;;;1.05;0.30;;;18.10;95.70;;;;;;10214740;29;20067;-59
2022/06/22 00:53:49;;;;;;;1.45;0.30;;;17.90;95.90;;;;;;10213639;28;20086;-58
2022/06/22 00:59:14;;;;;;;2.83;0.50;;;18.00;95.40;;;;;;10211613;29;20095;-58
2022/06/22 01:04:25;;;;;;;2.78;0.40;;;17.90;95.50;;;;;;10217036;29;20823;-60
2022/06/22 01:09:37;;;;;;;0.60;0.20;;;17.90;95.10;;;;;;10214841;29;20063;-60
2022/06/22 01:15:02;;;;;;;3.60;0.30;;;17.80;95.20;;;;;;10204274;29;20062;-60
2022/06/22 01:20:31;;;;;;;0.70;0.30;;;17.70;95.20;;;;;;10217147;29;20082;-60
2022/06/22 01:25:54;;;;;;;0.98;0.40;;;17.60;95.40;;;;;;10207565;29;20439;-60
2022/06/22 01:31:05;;;;;;;10.15;0.40;;;17.60;96.10;;;;;;10211871;28;20055;-60
2022/06/22 01:36:16;;;;;;;0.50;0.30;;;17.50;96.10;;;;;;10208945;29;20056;-60
2022/06/22 01:41:20;;;;;;;0.73;0.30;;;17.50;96.40;;;;;;10212138;29;20047;-60
2022/06/22 01:46:47;;;;;;;1.02;0.45;;;17.50;97.00;;;;;;10212097;29;20051;-60
2022/06/22 01:51:53;;;;;;;3.85;0.35;;;17.40;97.10;;;;;;10210458;29;20103;-58
2022/06/22 01:57:06;;;;;;;1.20;0.30;;;17.30;97.00;;;;;;10216171;29;20103;-59
2022/06/22 02:02:13;;;;;;;0.60;0.20;;;17.30;96.70;;;;;;10207689;29;20491;-60
2022/06/22 02:07:46;;;;;;;0.20;0.20;;;17.30;96.00;;;;;;10209514;29;20051;-60
2022/06/22 02:13:00;;;;;;;2.47;0.30;;;17.30;95.90;;;;;;10209286;29;20135;-60
2022/06/22 02:18:03;;;;;;;0.50;0.30;;;17.30;96.10;;;;;;10212047;28;20058;-60
2022/06/22 02:23:14;;;;;;;3.10;0.50;;;17.20;96.40;;;;;;10212271;29;20554;-60
2022/06/22 02:28:16;;;;;;;4.13;0.40;;;17.20;96.60;;;;;;10210582;29;20066;-60
2022/06/22 02:33:18;;;;;;;1.83;0.50;;;17.10;96.90;;;;;;10212443;29;20055;-60
2022/06/22 02:38:21;;;;;;;2.70;0.60;;;17.10;96.90;;;;;;10211976;29;20077;-60
2022/06/22 02:48:54;;;;;;;0.40;0.25;;;16.90;97.60;;;;;;10191000;29;20114;-60
2022/06/22 02:54:01;;;;;;;0.93;0.30;;;16.90;97.50;;;;;;10208689;29;20082;-60
2022/06/22 02:59:04;;;;;;;1.65;0.22;;;16.90;97.50;;;;;;10199786;28;20059;-60
2022/06/22 03:04:13;;;;;;;0.85;0.30;;;16.80;97.50;;;;;;10209643;29;20055;-60
2022/06/22 03:09:16;;;;;;;0.70;0.30;;;16.80;97.50;;;;;;10207548;29;20090;-60
2022/06/22 03:14:22;;;;;;;0.45;0.30;;;16.80;97.80;;;;;;10209935;29;20454;-63
2022/06/22 03:19:48;;;;;;;2.17;0.32;;;16.70;97.90;;;;;;10207590;28;20126;-64
2022/06/22 03:25:13;;;;;;;0.75;0.30;;;16.70;97.90;;;;;;10213329;28;20063;-63
2022/06/22 03:30:19;;;;;;;0.60;0.28;;;16.70;98.20;;;;;;10211180;29;20107;-63
2022/06/22 03:35:34;;;;;;;7.18;0.98;;;16.70;97.80;;;;;;10210427;29;20060;-63
2022/06/22 03:40:47;;;;;;;0.82;0.30;;;16.70;97.70;;;;;;10210676;29;20411;-63
2022/06/22 03:45:58;;;;;;;2.53;0.30;;;16.70;97.70;;;;;;10210893;29;20106;-64
2022/06/22 03:51:05;;;;;;;1.25;0.38;;;16.80;97.50;;;;;;10210272;29;20051;-62
2022/06/22 03:56:17;;;;;;;1.90;0.30;;;16.90;97.70;;;;;;10208767;29;20110;-63
2022/06/22 04:01:20;;;;;;;1.38;0.47;;;16.80;99.90;;;;;;10191781;29;20055;-64
2022/06/22 04:06:48;;;;;;;2.00;0.50;;;16.70;99.90;;;;;;10208393;29;20122;-64
2022/06/22 04:12:14;;;;;;;0.80;0.30;;;16.70;99.90;;;;;;10206855;29;20067;-64
2022/06/22 04:17:37;;;;;;;0.45;0.28;;;16.70;99.90;;;;;;10207296;28;20089;-62
2022/06/22 04:22:42;;;;;;;1.02;0.38;;;16.80;99.90;;;;;;10212827;29;20106;-62
2022/06/22 04:27:48;;;;;;;0.95;0.30;;;16.80;99.90;;;;;;10211035;28;20044;-62
2022/06/22 04:33:14;;;;;;;1.05;0.30;;;16.90;99.90;;;;;;10222508;28;20374;-63
2022/06/22 04:38:47;;;;;;;1.30;0.32;;;16.90;99.90;;;;;;10211386;29;20070;-62
2022/06/22 04:43:50;;;;;;;1.58;0.43;;;17.00;99.90;;;;;;10214327;29;20102;-62
2022/06/22 04:48:55;;;;;;;1.05;0.60;;;17.00;99.90;;;;;;10215972;29;20052;-62
2022/06/22 04:54:05;;;;;;;0.60;0.47;;;17.10;99.90;;;;;;10214578;29;20067;-63
2022/06/22 04:59:10;;;;;;;1.63;0.38;;;17.20;99.90;;;;;;10218966;29;20118;-62
2022/06/22 05:04:33;;;;;;;0.77;0.30;;;17.30;99.90;;;;;;10213441;29;20055;-62
2022/06/22 05:09:41;;;;;;;1.20;0.38;;;17.40;99.90;;;;;;10216363;29;20209;-61
2022/06/22 05:14:44;;;;;;;0.95;0.50;;;17.60;99.90;;;;;;10210596;29;20114;-61
2022/06/22 05:19:52;;;;;;;2.80;0.40;;;17.70;99.90;;;;;;10206811;28;20127;-62
2022/06/22 05:25:00;;;;;;;0.80;0.43;;;17.80;99.90;;;;;;10216041;29;20114;-63
2022/06/22 05:30:05;;;;;;;1.83;0.40;;;17.90;99.90;;;;;;10201128;29;20052;-63
2022/06/22 05:35:11;;;;;;;1.23;0.30;;;18.10;99.90;;;;;;10217304;29;20097;-61
2022/06/22 05:40:14;;;;;;;0.87;0.23;;;18.20;99.90;;;;;;10216287;28;20060;-61
2022/06/22 05:45:19;;;;;;;1.45;0.30;;;18.50;99.90;;;;;;10219279;28;20058;-63
2022/06/22 05:50:33;;;;;;;1.17;0.32;;;18.60;99.90;;;;;;10220403;28;20510;-61
2022/06/22 05:56:01;;;;;;;3.08;0.40;;;18.80;99.90;;;;;;10220799;28;21009;-61
2022/06/22 06:01:11;;;;;;;1.83;0.30;;;19.00;99.70;;;;;;10213307;28;20399;-63
2022/06/22 06:06:19;;;;;;;2.20;0.40;;;19.20;99.20;;;;;;10217119;29;20051;-62
2022/06/22 06:11:26;;;;;;;2.30;0.30;;;19.30;98.10;;;;;;10217056;29;20059;-62
2022/06/22 06:16:41;;;;;;;1.85;0.40;;;19.50;97.90;;;;;;10211723;28;20063;-62
2022/06/22 06:21:43;;;;;;;3.00;0.40;;;19.60;97.60;;;;;;10210112;29;20063;-59
2022/06/22 06:32:59;;;;;;;0.30;0.20;;;19.80;97.00;;;;;;10211144;29;20126;-61
2022/06/22 06:38:27;;;;;;;1.67;0.30;;;19.90;96.30;;;;;;10211256;29;20681;-60
2022/06/22 06:43:38;;;;;;;1.55;0.52;;;19.90;96.10;;;;;;10218976;29;20059;-59
2022/06/22 06:48:44;;;;;;;2.05;0.60;;;20.00;96.10;;;;;;10213827;29;20088;-63
2022/06/22 06:53:49;;;;;;;2.00;0.38;;;20.10;96.20;;;;;;10202464;28;20063;-64
2022/06/22 06:59:11;;;;;;;0.73;0.30;;;20.20;95.70;;;;;;10213293;28;20047;-63
2022/06/22 07:04:21;;;;;;;2.42;0.28;;;20.30;95.10;;;;;;10209992;29;20053;-63
2022/06/22 07:09:31;;;;;;;1.45;0.30;;;20.50;94.90;;;;;;10208093;29;20065;-62
2022/06/22 07:14:39;;;;;;;0.75;0.20;;;20.60;94.20;;;;;;10213107;29;20063;-62
2022/06/22 07:19:44;;;;;;;2.05;0.45;;;20.80;94.10;;;;;;10211157;29;20055;-64
2022/06/22 07:24:48;;;;;;;2.83;0.30;;;20.80;94.30;;;;;;10212331;29;20487;-64
2022/06/22 07:29:58;;;;;;;0.20;0.20;;;20.90;94.10;;;;;;10207882;29;20067;-60
2022/06/22 07:35:29;;;;;;;0.75;0.32;;;21.10;93.90;;;;;;10210489;29;20107;-60
2022/06/22 07:40:33;;;;;;;2.75;0.40;;;21.30;93.70;;;;;;10209155;29;20066;-60
2022/06/22 07:45:34;;;;;;;0.90;0.30;;;21.50;93.40;;;;;;10210079;29;20067;-60
2022/06/22 07:50:53;;;;;;;1.75;0.25;;;21.70;93.50;;;;;;10206907;29;20118;-61
2022/06/22 07:56:00;;;;;;;0.95;0.30;;;21.70;92.40;;;;;;10205968;29;20067;-60
2022/06/22 08:01:08;;;;;;;1.38;0.22;;;21.80;92.10;;;;;;10211437;28;20498;-63
2022/06/22 08:06:15;;;;;;;1.23;0.30;;;22.00;91.70;;;;;;10216750;28;20142;-63
2022/06/22 08:11:33;;;;;;;2.38;0.30;;;22.10;91.70;;;;;;10218362;29;20118;-62
2022/06/22 08:16:45;;;;;;;1.30;0.30;;;22.40;91.10;;;;;;10219018;28;20478;-61
2022/06/22 08:21:52;;;;;;;3.33;0.38;;;22.50;90.30;;;;;;10209773;29;20054;-61
2022/06/22 08:26:56;;;;;;;0.65;0.30;;;22.80;90.40;;;;;;10216082;29;20051;-62
2022/06/22 08:32:15;;;;;;;0.98;0.32;;;22.80;89.50;;;;;;10216135;29;20487;-62
2022/06/22 08:37:28;;;;;;;;;;;23.10;89.00;;;;;;10201576;29;20108;-62
2022/06/22 08:42:39;;;;;;;0.75;0.30;;;23.30;89.00;;;;;;10196441;29;20329;-62
2022/06/22 08:47:58;;;;;;;0.65;0.30;;;23.40;88.50;;;;;;10213164;29;20126;-62
2022/06/22 08:53:24;;;;;;;1.63;0.30;;;23.60;87.30;;;;;;10217585;29;20051;-63
2022/06/22 08:59:05;;;;;;;2.92;0.30;;;23.80;89.20;;;;;;10213973;29;20499;-62
2022/06/22 09:09:46;;;;;;;2.22;0.30;;;24.30;83.70;;;;;;10111993;29;20048;-87
2022/06/22 09:14:59;;;;;;;2.13;0.30;;;24.50;83.80;;;;;;10113474;29;20072;-87
2022/06/22 09:20:33;;;;;;;3.40;0.30;;;24.70;82.30;;;;;;10101657;29;20045;-87
2022/06/22 09:25:49;;;;;;;0.83;0.30;;;24.80;80.70;;;;;;10122003;29;20060;-85
2022/06/22 09:31:28;;;;;;;0.45;0.32;;;25.10;76.70;;;;;;10122454;29;20620;-85
2022/06/22 09:37:07;;;;;;;1.33;0.30;;;25.20;78.40;;;;;;10113673;29;20056;-85
2022/06/22 09:42:32;;;;;;;1.58;0.50;;;25.40;78.40;;;;;;10117632;29;20049;-85
2022/06/22 09:47:52;;;;;;;1.17;0.40;;;25.50;75.10;;;;;;10103049;29;20491;-86
2022/06/22 09:53:35;;;;;;;4.40;0.40;;;25.80;77.20;;;;;;10114742;29;20404;-86
2022/06/22 09:59:13;;;;;;;1.00;0.50;;;26.00;76.50;;;;;;10075798;29;20057;-86
2022/06/22 10:05:03;;;;;;;4.53;0.35;;;26.40;72.90;;;;;;10096076;29;20053;-86
2022/06/22 10:10:14;;;;;;;4.53;0.40;;;26.50;73.70;;;;;;10042140;29;21624;-86
2022/06/22 10:15:56;;;;;;;1.42;0.75;;;26.90;71.80;;;;;;10082566;29;20056;-86
2022/06/22 10:21:12;;;;;;;1.00;0.60;;;27.10;70.60;;;;;;10091994;29;20117;-87
2022/06/22 10:26:34;;;;;;;2.63;0.65;;;27.10;68.70;;;;;;10095974;29;20108;-87
2022/06/22 10:31:45;;;;;;;1.80;0.43;;;27.30;68.70;;;;;;10105400;29;20068;-86
2022/06/22 10:37:25;;;;;;;0.70;0.43;;;27.40;67.20;;;;;;10097030;29;20139;-86
2022/06/22 10:48:35;;;;;;;0.70;0.40;;;27.80;69.00;;;;;;10088456;29;20057;-85
2022/06/22 10:54:03;;;;;;;1.65;0.30;;;27.90;65.90;;;;;;10098091;29;20064;-85
2022/06/22 10:59:43;;;;;;;3.35;0.50;;;28.20;64.40;;;;;;10105455;29;20752;-86
2022/06/22 11:05:16;;;;;;;3.33;0.65;;;28.40;64.70;;;;;;10031641;29;20102;-86
2022/06/22 11:10:39;;;;;;;1.50;0.55;;;28.80;64.40;;;;;;10052957;29;20054;-86
2022/06/22 11:16:09;;;;;;;0.60;0.40;;;29.20;61.80;;;;;;10050529;29;20060;-86
2022/06/22 11:21:32;;;;;;;0.65;0.38;;;29.00;58.30;;;;;;10055755;29;20064;-87
2022/06/22 11:32:55;;;;;;;1.38;0.30;;;29.60;56.10;;;;;;10064119;29;20049;-87
2022/06/22 11:38:14;;;;;;;0.95;0.30;;;29.70;53.10;;;;;;10082475;29;20062;-87
2022/06/22 11:43:27;;;;;;;4.15;0.30;;;30.00;50.70;;;;;;10067312;29;20088;-87
2022/06/22 11:48:44;;;;;;;2.92;0.40;;;29.90;52.30;;;;;;10074198;29;20045;-87
2022/06/22 11:54:08;;;;;;;1.92;0.40;;;30.10;52.40;;;;;;10071326;29;20068;-87
2022/06/22 11:59:29;;;;;;;2.38;0.30;;;30.40;54.00;;;;;;10081675;29;20062;-87
2022/06/22 12:05:19;;;;;;;1.23;0.30;;;30.40;52.30;;;;;;10086143;29;20061;-87
2022/06/22 12:10:51;;;;;;;5.88;0.30;;;30.60;52.20;;;;;;10004662;29;20073;-87
2022/06/22 12:16:16;;;;;;;0.40;0.30;;;30.40;49.50;;;;;;10068387;29;20068;-87
2022/06/22 12:21:38;;;;;;;0.85;0.30;;;30.40;50.10;;;;;;10057309;29;20085;-87
2022/06/22 12:27:08;;;;;;;2.25;0.20;;;30.80;52.40;;;;;;10066357;29;20057;-87
2022/06/22 12:32:14;;;;;;;3.40;0.30;;;31.00;50.40;;;;;;10066364;29;20060;-87
2022/06/22 12:37:25;;;;;;;1.73;0.30;;;31.10;49.70;;;;;;10064528;29;20053;-87
2022/06/22 12:42:54;;;;;;;0.88;0.28;;;31.20;47.60;;;;;;10056105;29;20064;-86
2022/06/22 12:48:28;;;;;;;0.70;0.20;;;31.20;46.50;;;;;;10052702;29;20046;-87
2022/06/22 12:53:49;;;;;;;0.20;0.20;;;31.10;46.80;;;;;;10073615;29;20081;-87
2022/06/22 12:58:57;;;;;;;0.20;0.20;;;31.20;44.70;;;;;;10026581;29;20045;-87
2022/06/22 13:04:18;;;;;;;2.90;0.20;;;31.30;48.00;;;;;;10070892;29;20084;-88
2022/06/22 13:09:21;;;;;;;1.85;0.20;;;31.10;43.10;;;;;;10054931;29;20061;-88
2022/06/22 13:14:51;;;;;;;0.75;0.17;;;31.00;44.60;;;;;;10077223;29;20586;-87
2022/06/22 13:20:08;;;;;;;1.05;0.20;;;31.20;41.70;;;;;;10063730;29;20060;-87
2022/06/22 13:25:40;;;;;;;0.25;0.10;;;31.00;42.30;;;;;;10064343;29;20070;-86
2022/06/22 13:30:55;;;;;;;0.95;0.20;;;31.00;45.20;;;;;;10066637;29;20570;-87
2022/06/22 13:36:07;;;;;;;1.00;0.20;;;30.70;41.50;;;;;;10058457;29;20066;-87
2022/06/22 13:41:25;;;;;;;0.40;0.20;;;31.10;43.30;;;;;;10065197;29;20523;-87
2022/06/22 13:46:26;;;;;;;0.43;0.17;;;31.20;42.00;;;;;;10041445;29;20073;-86
2022/06/22 13:51:51;;;;;;;1.85;0.20;;;31.10;42.10;;;;;;10047362;29;20064;-87
2022/06/22 13:56:56;;;;;;;3.83;0.20;;;31.50;44.60;;;;;;10059538;29;20071;-88
2022/06/22 14:02:27;;;;;;;0.30;0.20;;;32.00;43.50;;;;;;10029786;29;20412;-88
2022/06/22 14:07:42;;;;;;;2.78;0.20;;;32.00;40.80;;;;;;10073845;29;20114;-88
2022/06/22 14:12:49;;;;;;;0.65;0.20;;;32.50;40.30;;;;;;10103127;29;20496;-88
2022/06/22 14:18:08;;;;;;;0.93;0.22;;;32.10;40.10;;;;;;10102661;29;20057;-88
2022/06/22 14:23:16;;;;;;;0.63;0.28;;;32.60;40.20;;;;;;10104598;29;20048;-88
2022/06/22 14:28:41;;;;;;;1.58;0.30;;;32.10;41.60;;;;;;10098929;29;20496;-88
2022/06/22 14:34:04;;;;;;;1.00;0.20;;;32.20;41.00;;;;;;10095579;29;20057;-88
2022/06/22 14:39:54;;;;;;;2.03;0.47;;;32.90;41.50;;;;;;10086447;29;20074;-87
2022/06/22 14:45:29;;;;;;;4.57;0.30;;;33.30;41.50;;;;;;10113636;29;20132;-87
2022/06/22 14:50:53;;;;;;;1.40;0.30;;;32.70;40.20;;;;;;10101404;29;20067;-88
2022/06/22 14:56:01;;;;;;;1.55;0.30;;;32.50;41.70;;;;;;10098141;29;20124;-88
2022/06/22 15:01:27;;;;;;;0.70;0.30;;;32.90;41.60;;;;;;10108212;29;20071;-88
2022/06/22 15:07:10;;;;;;;2.72;0.30;;;32.70;42.50;;;;;;10088073;29;20084;-88
2022/06/22 15:18:12;;;;;;;1.35;0.30;;;33.30;40.80;;;;;;10048854;29;20076;-88
2022/06/22 15:23:39;;;;;;;0.47;0.20;;;33.60;42.10;;;;;;10048587;29;20061;-88
2022/06/22 15:29:15;;;;;;;5.20;0.70;;;34.20;40.50;;;;;;10054998;29;20065;-88
2022/06/22 15:34:44;;;;;;;5.60;0.50;;;33.80;46.70;;;;;;10058798;29;20048;-88
2022/06/22 15:40:13;;;;;;;0.70;0.52;;;33.20;48.00;;;;;;10045136;29;20049;-88
2022/06/22 15:45:52;;;;;;;3.80;0.60;;;33.10;47.40;;;;;;10048448;29;20071;-88
2022/06/22 15:51:30;;;;;;;3.22;0.60;;;32.60;49.80;;;;;;10080392;29;20065;-88
2022/06/22 15:56:55;;;;;;;2.53;0.60;;;33.20;49.80;;;;;;10041786;29;20053;-88
2022/06/22 16:02:16;;;;;;;2.15;0.70;;;33.40;48.60;;;;;;10068612;29;20065;-89
2022/06/22 16:08:08;;;;;;;4.35;0.63;;;32.70;49.00;;;;;;10057799;29;20552;-87
2022/06/22 16:13:28;;;;;;;1.13;0.60;;;31.80;51.30;;;;;;10058341;29;20044;-87
2022/06/22 16:18:53;;;;;;;3.65;0.75;;;31.80;52.50;;;;;;10072762;29;20105;-88
2022/06/22 16:24:17;;;;;;;0.88;0.60;;;32.00;53.40;;;;;;10086159;29;20049;-88
2022/06/22 16:29:36;;;;;;;2.95;1.00;;;31.60;53.80;;;;;;10101334;29;20085;-88
2022/06/22 16:35:00;;;;;;;3.45;1.13;;;32.10;54.70;;;;;;10094665;29;20080;-88
2022/06/22 16:40:33;;;;;;;4.85;0.88;;;32.40;52.60;;;;;;10077578;29;20049;-88
2022/06/22 16:46:12;;;;;;;5.15;1.00;;;32.70;53.30;;;;;;10102901;29;20077;-88
2022/06/22 16:51:27;;;;;;;5.38;0.93;;;32.00;52.70;;;;;;10058917;29;20053;-89
2022/06/22 16:56:39;;;;;;;4.38;0.80;;;32.10;53.20;;;;;;10081882;29;20057;-88
2022/06/22 17:02:02;;;;;;;2.40;0.68;;;31.10;54.70;;;;;;10083998;29;20052;-89
2022/06/22 17:07:32;;;;;;;1.67;0.50;;;31.20;55.30;;;;;;10090558;29;20069;-90
2022/06/22 17:12:38;;;;;;;3.08;0.80;;;30.80;56.10;;;;;;10025758;29;20058;-91
2022/06/22 17:17:53;;;;;;;1.40;0.85;;;30.60;57.40;;;;;;10026589;29;20053;-91
2022/06/22 17:23:04;;;;;;;3.22;0.90;;;30.30;57.90;;;;;;10040930;29;20052;-91
2022/06/22 17:28:30;;;;;;;5.05;1.00;;;30.30;58.70;;;;;;10040187;29;21931;-91
2022/06/22 17:34:14;;;;;;;3.38;0.88;;;30.00;59.90;;;;;;10021356;29;20061;-91
2022/06/22 17:39:35;;;;;;;6.00;0.88;;;30.20;61.30;;;;;;10023017;29;20053;-90
2022/06/22 17:44:59;;;;;;;5.80;1.10;;;30.10;62.00;;;;;;10000381;29;20072;-91
2022/06/22 17:50:13;;;;;;;5.25;0.80;;;29.90;62.70;;;;;;10022581;29;20073;-90
2022/06/22 17:55:28;;;;;;;4.22;0.77;;;29.80;62.70;;;;;;10050206;29;20060;-90
2022/06/22 18:00:35;;;;;;;;;;;29.70;63.70;;;;;;10053622;29;20600;-91
2022/06/22 18:05:40;;;;;;;9.63;0.80;;;29.80;64.10;;;;;;10034552;29;19932;-88
2022/06/22 18:10:46;;;;;;;2.65;0.60;;;29.80;63.70;;;;;;10070953;29;20132;-88
2022/06/22 18:15:49;;;;;;;3.60;0.73;;;29.40;64.50;;;;;;10082432;29;20053;-89
2022/06/22 18:20:54;;;;;;;6.82;1.05;;;29.30;65.00;;;;;;10074715;29;20116;-87
2022/06/22 18:25:58;;;;;;;;;;;28.60;67.00;;;;;;10052929;29;20057;-88
2022/06/22 18:31:08;;;;;;;4.97;0.80;;;28.00;69.70;;;;;;10074497;29;19923;-88
2022/06/22 18:36:51;;;;;;;4.78;0.80;;;27.60;71.70;;;;;;10060196;29;20084;-88
2022/06/22 18:42:05;;;;;;;5.70;1.17;;;27.20;73.60;;;;;;10068100;29;20120;-87
2022/06/22 18:47:21;;;;;;;9.52;0.70;;;26.70;76.00;;;;;;10065271;29;20057;-87
2022/06/22 18:52:55;;;;;;;8.15;1.40;;;26.40;78.30;;;;;;10051997;29;20048;-90
2022/06/22 18:58:19;;;;;;;5.45;0.85;;;26.20;80.10;;;;;;10067569;29;20057;-86
2022/06/22 19:03:38;;;;;;;9.70;1.25;;;25.80;82.00;;;;;;10071654;29;20053;-87
2022/06/22 19:08:45;;;;;;;7.68;1.45;;;25.50;84.70;;;;;;10059953;29;20057;-87
2022/06/22 19:14:19;;;;;;;5.95;0.90;;;25.30;86.70;;;;;;10047512;29;20056;-87
2022/06/22 19:19:39;;;;;;;5.15;1.30;;;25.10;89.20;;;;;;10040596;29;20064;-88
2022/06/22 19:25:08;;;;;;;8.73;1.13;;;24.90;90.80;;;;;;10083559;29;20059;-86
2022/06/22 19:30:13;;;;;;;3.15;1.05;;;24.70;91.60;;;;;;10077408;29;20049;-86
2022/06/22 19:35:32;;;;;;;9.90;1.43;;;24.60;92.70;;;;;;10072227;29;20064;-85
2022/06/22 19:40:59;;;;;;;11.55;1.65;;;24.40;93.70;;;;;;10062539;29;20061;-85
2022/06/22 19:46:12;;;;;;;15.75;1.73;;;24.30;94.50;;;;;;10071154;29;20052;-85
2022/06/22 19:51:34;;;;;;;9.70;1.38;;;24.10;95.50;;;;;;10065764;29;20411;-85
2022/06/22 19:56:46;;;;;;;11.00;1.85;;;24.00;96.40;;;;;;10078495;29;20041;-86
2022/06/22 20:01:53;;;;;;;9.10;1.27;;;23.90;97.10;;;;;;10071496;29;20063;-85
2022/06/22 20:07:23;;;;;;;11.00;1.52;;;23.80;97.90;;;;;;10066304;29;20052;-82
2022/06/22 20:12:41;;;;;;;3.80;0.95;;;23.70;98.60;;;;;;10065585;29;20065;-81
2022/06/22 20:17:55;;;;;;;10.18;1.92;;;23.50;99.20;;;;;;10061751;29;20057;-81
2022/06/22 20:23:38;;;;;;;7.47;1.10;;;23.30;99.80;;;;;;10074369;29;20054;-82
2022/06/22 20:29:12;;;;;;;9.75;1.40;;;23.20;99.90;;;;;;10067105;29;20068;-85
2022/06/22 20:34:33;;;;;;;5.47;0.80;;;23.10;99.90;;;;;;10052149;29;20056;-82
2022/06/22 20:39:38;;;;;;;7.05;1.10;;;23.00;99.90;;;;;;10071363;29;20416;-80
2022/06/22 20:44:51;;;;;;;5.60;0.98;;;22.80;99.90;;;;;;10050482;29;20656;-81
2022/06/22 20:50:22;;;;;;;4.40;1.10;;;22.70;99.90;;;;;;10047538;29;20061;-81
2022/06/22 20:55:30;;;;;;;6.45;1.10;;;22.60;99.90;;;;;;10071913;29;20094;-82
2022/06/22 21:00:37;;;;;;;11.38;1.45;;;22.40;99.90;;;;;;10073256;29;20045;-82
2022/06/22 21:05:46;;;;;;;6.18;1.08;;;22.30;99.90;;;;;;10068240;29;20059;-81
2022/06/22 21:10:52;;;;;;;13.98;1.73;;;22.30;99.90;;;;;;10076953;29;20062;-81
2022/06/22 21:15:55;;;;;;;8.48;1.50;;;22.30;99.90;;;;;;10072054;29;20069;-81
2022/06/22 21:21:08;;;;;;;8.68;1.55;;;22.20;99.90;;;;;;10070040;29;20049;-82
2022/06/22 21:26:26;;;;;;;5.50;1.75;;;22.10;99.90;;;;;;10075371;29;20060;-82
2022/06/22 21:31:29;;;;;;;14.73;1.95;;;22.00;99.90;;;;;;10069087;29;20462;-82
2022/06/22 21:36:58;;;;;;;13.23;2.30;;;21.90;99.90;;;;;;10078669;29;20049;-82
2022/06/22 21:42:15;;;;;;;8.57;1.88;;;21.80;99.90;;;;;;10087370;29;20053;-81
2022/06/22 21:47:43;;;;;;;6.22;2.38;;;21.80;99.90;;;;;;10089498;29;20116;-82
2022/06/22 21:53:02;;;;;;;5.82;1.73;;;21.60;99.90;;;;;;10062296;29;20048;-85
2022/06/22 21:58:21;;;;;;;6.03;1.80;;;21.50;99.90;;;;;;10078288;29;20371;-86
2022/06/22 22:04:04;;;;;;;9.48;1.95;;;21.40;99.90;;;;;;10074220;29;20080;-85
2022/06/22 22:09:08;;;;;;;11.15;2.08;;;21.40;99.90;;;;;;10074297;29;20053;-86
2022/06/22 22:14:17;;;;;;;11.15;3.70;;;21.30;99.90;;;;;;10057316;29;20105;-82
2022/06/22 22:19:24;;;;;;;9.10;2.15;;;21.30;99.90;;;;;;10071446;29;20095;-81
2022/06/22 22:24:33;;;;;;;12.60;2.00;;;21.30;99.90;;;;;;10070014;29;20079;-81
2022/06/22 22:29:41;;;;;;;5.72;2.17;;;21.30;99.90;;;;;;10057004;29;20137;-81
2022/06/22 22:34:46;;;;;;;10.23;2.17;;;21.20;99.90;;;;;;10071848;29;20069;-82
2022/06/22 22:39:51;;;;;;;11.15;2.60;;;21.00;99.90;;;;;;10050495;29;20057;-82
2022/06/22 22:44:57;;;;;;;8.55;2.92;;;20.80;99.90;;;;;;10062407;29;20049;-82
2022/06/22 22:50:06;;;;;;;8.90;3.67;;;20.80;99.90;;;;;;10079487;29;20444;-82
2022/06/22 22:55:29;;;;;;;12.20;3.17;;;20.70;99.90;;;;;;10070417;29;20061;-81
2022/06/22 23:00:35;;;;;;;10.30;2.80;;;20.70;99.90;;;;;;10059652;29;20166;-80
2022/06/22 23:05:37;;;;;;;6.43;2.45;;;20.70;99.90;;;;;;10052231;29;20057;-81
2022/06/22 23:10:54;;;;;;;15.18;2.65;;;20.50;99.90;;;;;;10055392;29;20551;-81
2022/06/22 23:16:24;;;;;;;6.32;2.58;;;20.40;99.90;;;;;;10071389;29;20045;-81
2022/06/22 23:21:39;;;;;;;15.70;3.33;;;20.20;99.90;;;;;;10052255;29;20056;-82
2022/06/22 23:26:51;;;;;;;10.45;2.88;;;20.20;99.90;;;;;;10070778;29;20053;-82
2022/06/22 23:32:00;;;;;;;3.80;2.05;;;20.10;99.90;;;;;;10041689;29;20057;-81
2022/06/22 23:37:27;;;;;;;11.90;2.28;;;20.00;99.90;;;;;;10044754;29;20060;-81
2022/06/22 23:42:32;;;;;;;;;;;19.80;99.90;;;;;;10049893;29;20121;-81
2022/06/22 23:52:57;;;;;;;9.23;2.65;;;19.70;99.90;;;;;;10069573;29;20062;-81
2022/06/22 23:58:01;;;;;;;8.10;2.70;;;19.60;99.90;;;;;;10056179;29;20095;-81
